青島 の空港の天気 - METARとTAF

青島流亭国際空港 ( ZSQD / TAO ) - 中国 山東省青島市
飛行場実況気象(Metar)
観測時間08/14 05:00 CST (08/13 21:00 UTC)
風向・風速東南東 1m/s
視程5000m
天気現象もや
なし
気温25℃
湿度100%
気圧1003hPa
METARZSQD 132100Z 12001MPS 5000 BR NSC 25/25 Q1003 NOSIG
過去の天気等 Google飛行場航空写真 Wunderground天気予報

過去48時間のMETAR

飛行場予報(TAF)
発表時間: 8/13 23:00 CST (8/13 15:00 UTC)
予報対象時間: 14日2時 CST ~ 15日2時 CST
風向・風速南南東 4m/s
視程3500m
天気現象もや
全天の8割程度の雲 雲底高度 610m
14日2時 CST ~ 14日8時 CST に一時的に
天気現象雷雨
全天の8割程度の雲 雲底高度 610m
少しの積乱雲 雲底高度 910m
TAF ZSQD 131500Z 1318/1418 15004MPS 3500 BR BKN020 TX33/1406Z TN24/1320Z
TEMPO 1318/1324 TSRA BKN020 FEW030CB